Главная страница
METAR-TAF:

METAR-TAF

Аэропорты :

Стригино

Нижний Новгород, Россия

широта: 56-19-48N, долгота: 044-00E, высота над уровнем моря: 78 м

Текущие метеонаблюдения

Эта сводка был подготовлена 11 минут назад, в 03:00 UTC
Штиль
Температура 10°C
Влажность 100%
Давление 1022 hPa
Видимость: 6000 м
небольшая облачность на высоте 900 фута
Тонкий туман

METAR: UWGG 170300Z 00000MPS 6000 MIFG FEW009 10/10 Q1022 R36R/090070 NOSIG

Время: 06:11 (03:11 UTC)

Прогноз

Эта сводка был подготовлена 1 час и 14 минут назад, в 01:57 UTC
Прогноз действительный с 17-го 03 UTC до 18-го 03 UTC
Ветер 6 Узел от северный
Видимость: 6000 м
Отдельные облака на высоте 1100 фута

TAF: UWGG 170157Z 1703/1803 35003MPS 6000 SCT011 TX22/1712Z TN09/1801Z

Метеонаблюдения и прогнозы для более 4000 аэропортов (сводки METAR и TAF).

Имеющиеся станции представлены на карте желтыми и красными точками.

Чтобы увидеть название станции, наведите на нее мышь.

Затем щелкните, чтобы увидеть метеонаблюдения и метеопрогнозы.

Управление картой: чтобы увеличить масштаб, щелкните зеленые кнопки с черным крестиком; чтобы уменьшить масштаб, щелкните зеленую кнопку с тире; для просмотра соседних карт щелкайте зеленые стрелки.


METAR-TAF: